Time;durP1;ratioP1;P1;durP2;ratioP2;P2;SDS_P1;SDS_P2;PMS_P1;PMS_P2;Temp;Humidity;BMP_temperature;BMP_pressure;BME280_temperature;BME280_humidity;BME280_pressure;Samples;Min_cycle;Max_cycle;Signal;HPM_P1;HPM_P2
2023/06/06 00:00:30;;;;;;;;;18.67;18.67;;;;;20.57;73.31;100137.31;5037189;28;45429;-78
2023/06/06 00:02:56;;;;;;;;;19.67;18.67;;;;;20.54;72.94;100111.72;5044225;28;45443;-78
2023/06/06 00:05:21;;;;;;;;;19.33;18.00;;;;;20.75;72.45;100139.69;5044975;28;45660;-78
2023/06/06 00:07:47;;;;;;;;;19.67;19.00;;;;;20.80;72.31;100128.97;5052414;28;45505;-79
2023/06/06 00:10:15;;;;;;;;;21.75;20.50;;;;;20.59;72.80;100114.31;5042185;28;45559;-79
2023/06/06 00:12:41;;;;;;;;;17.67;16.00;;;;;20.57;72.63;100124.06;5043942;28;45438;-80
2023/06/06 00:15:08;;;;;;;;;17.67;17.00;;;;;20.50;72.91;100115.34;5044648;28;45564;-80
2023/06/06 00:17:35;;;;;;;;;18.50;17.50;;;;;20.45;73.35;100112.78;5052993;28;45458;-80
2023/06/06 00:20:01;;;;;;;;;20.00;17.00;;;;;20.45;73.51;100110.13;5040395;28;45418;-79
2023/06/06 00:22:27;;;;;;;;;19.33;18.33;;;;;20.30;73.80;100096.25;5055087;28;45224;-79
2023/06/06 00:24:53;;;;;;;;;22.25;19.75;;;;;20.35;73.78;100107.63;5057092;28;45377;-79
2023/06/06 00:27:20;;;;;;;;;19.00;16.67;;;;;20.42;73.60;100112.81;5041869;28;45366;-79
2023/06/06 00:29:45;;;;;;;;;19.00;17.33;;;;;20.45;73.58;100107.47;5037804;28;45590;-80
2023/06/06 00:32:11;;;;;;;;;23.67;20.33;;;;;20.46;73.60;100092.41;5038694;28;45541;-80
2023/06/06 00:34:37;;;;;;;;;20.67;19.00;;;;;20.46;74.34;100097.72;5055526;28;45492;-78
2023/06/06 00:37:03;;;;;;;;;19.67;18.67;;;;;20.59;73.15;100119.63;5041060;28;45572;-79
2023/06/06 00:39:28;;;;;;;;;20.33;18.67;;;;;20.53;72.66;100102.03;5035668;28;47945;-79
2023/06/06 00:41:54;;;;;;;;;16.25;15.50;;;;;20.52;72.55;100086.13;5042703;28;45472;-80
2023/06/06 00:44:21;;;;;;;;;25.25;20.75;;;;;20.58;72.49;100091.31;5046154;28;45682;-80
2023/06/06 00:46:48;;;;;;;;;15.50;14.25;;;;;20.62;72.51;100101.00;5037068;28;45588;-80
2023/06/06 00:49:15;;;;;;;;;23.75;23.00;;;;;20.63;72.35;100105.38;5053904;28;46067;-80
2023/06/06 00:51:43;;;;;;;;;22.00;19.25;;;;;20.48;72.64;100087.94;5047585;28;45573;-79
2023/06/06 00:54:13;;;;;;;;;24.00;21.00;;;;;20.52;72.66;100097.59;5042371;28;45560;-79
2023/06/06 00:56:43;;;;;;;;;17.33;16.67;;;;;20.59;72.39;100107.25;5038818;28;45457;-78
2023/06/06 00:59:10;;;;;;;;;20.25;19.75;;;;;20.54;71.89;100089.63;5054965;28;45349;-78
2023/06/06 01:01:38;;;;;;;;;19.75;18.00;;;;;20.58;72.19;100093.97;5037975;28;45456;-78
2023/06/06 01:04:10;;;;;;;;;17.67;16.67;;;;;20.48;72.26;100073.81;5049367;28;45402;-78
2023/06/06 01:06:37;;;;;;;;;22.00;18.25;;;;;20.42;72.22;100072.16;5047763;28;45451;-79
2023/06/06 01:09:07;;;;;;;;;20.00;18.75;;;;;20.50;72.51;100086.16;5041557;28;46133;-80
2023/06/06 01:11:55;;;;;;;;;20.00;18.00;;;;;20.46;72.73;100081.81;5018569;28;45784;-80
2023/06/06 01:14:29;;;;;;;;;18.75;17.75;;;;;20.49;72.77;100084.38;5046677;28;45669;-79
2023/06/06 01:16:57;;;;;;;;;20.00;18.67;;;;;20.44;72.32;100084.47;5041066;28;45446;-79
2023/06/06 01:19:29;;;;;;;;;17.67;17.67;;;;;20.33;72.82;100075.81;5055292;28;46110;-79
2023/06/06 01:21:57;;;;;;;;;17.50;16.00;;;;;20.33;73.68;100094.38;5052079;28;45495;-79
2023/06/06 01:24:24;;;;;;;;;17.50;17.50;;;;;20.17;73.88;100092.91;5036827;28;45270;-79
2023/06/06 01:26:50;;;;;;;;;21.25;18.75;;;;;20.14;74.14;100101.81;5027904;28;45487;-79
2023/06/06 01:29:16;;;;;;;;;22.33;20.33;;;;;20.12;74.30;100093.00;5034177;28;46365;-80
2023/06/06 01:31:49;;;;;;;;;23.00;19.50;;;;;20.08;74.09;100087.78;5040257;28;45555;-80
2023/06/06 01:35:04;;;;;;;;;20.00;18.75;;;;;20.01;73.92;100061.34;5038385;28;45225;-79
2023/06/06 01:37:38;;;;;;;;;22.25;21.75;;;;;20.10;74.32;100091.28;4965377;28;45385;-79
2023/06/06 01:40:07;;;;;;;;;21.25;19.25;;;;;19.95;75.06;100079.13;5043892;28;46275;-79
2023/06/06 01:42:39;;;;;;;;;23.50;19.75;;;;;19.94;75.13;100086.22;5041948;28;45414;-79
2023/06/06 01:45:07;;;;;;;;;19.25;18.25;;;;;19.80;75.17;100081.13;5052007;28;45402;-79
2023/06/06 01:47:33;;;;;;;;;17.75;16.75;;;;;19.73;75.55;100060.03;5036615;28;45555;-79
2023/06/06 01:49:59;;;;;;;;;20.00;17.33;;;;;19.90;75.08;100076.56;5035904;28;46814;-79
2023/06/06 01:52:28;;;;;;;;;18.25;17.50;;;;;20.00;74.63;100083.47;5036638;28;45350;-79
2023/06/06 01:54:55;;;;;;;;;14.25;13.25;;;;;19.80;74.13;100043.16;5048871;28;45512;-79
2023/06/06 01:57:20;;;;;;;;;22.50;18.50;;;;;20.08;74.01;100086.00;5046114;28;45589;-79
2023/06/06 01:59:46;;;;;;;;;20.75;19.50;;;;;20.10;74.11;100085.97;5049790;28;46229;-79
2023/06/06 02:02:12;;;;;;;;;19.00;17.00;;;;;20.08;74.27;100085.13;5042048;28;45693;-79
2023/06/06 02:04:37;;;;;;;;;17.25;16.50;;;;;20.04;74.05;100082.50;5057545;28;45322;-79
2023/06/06 02:07:03;;;;;;;;;17.33;16.67;;;;;19.99;74.26;100087.00;5058128;28;45569;-79
2023/06/06 02:09:28;;;;;;;;;19.00;16.67;;;;;20.02;73.86;100080.78;5037282;28;45449;-80
2023/06/06 02:11:54;;;;;;;;;19.50;19.00;;;;;19.92;73.40;100057.97;5031135;28;45469;-80
2023/06/06 02:14:19;;;;;;;;;19.50;18.50;;;;;19.87;73.33;100052.72;5053801;28;45456;-80
2023/06/06 02:16:48;;;;;;;;;19.25;17.25;;;;;19.96;72.98;100062.34;5046841;28;45571;-80
2023/06/06 02:19:13;;;;;;;;;20.75;18.50;;;;;20.10;73.20;100081.53;5057367;28;46162;-79
2023/06/06 02:21:39;;;;;;;;;22.25;20.00;;;;;19.97;73.00;100064.06;5039610;28;45374;-79
2023/06/06 02:24:05;;;;;;;;;19.33;18.33;;;;;20.12;72.76;100079.72;5038039;28;45403;-79
2023/06/06 02:26:31;;;;;;;;;17.33;17.33;;;;;20.11;72.55;100061.19;5046340;28;45533;-80
2023/06/06 02:28:58;;;;;;;;;25.50;19.50;;;;;19.96;72.51;100039.34;5036808;28;46843;-80
2023/06/06 02:31:26;;;;;;;;;15.25;15.25;;;;;20.08;73.07;100066.56;5039311;28;45526;-80
2023/06/06 02:33:52;;;;;;;;;17.67;17.33;;;;;20.01;73.23;100066.63;5037600;28;45490;-80
2023/06/06 02:36:18;;;;;;;;;22.33;15.67;;;;;19.76;73.03;100020.25;5039353;28;45338;-80
2023/06/06 02:38:43;;;;;;;;;21.75;18.75;;;;;19.80;73.00;100017.50;5054546;28;46239;-80
2023/06/06 02:41:09;;;;;;;;;17.00;16.50;;;;;20.06;72.56;100056.84;5038055;28;45470;-80
2023/06/06 02:43:39;;;;;;;;;21.25;17.00;;;;;19.99;72.31;100043.72;5021179;28;45435;-80
2023/06/06 02:46:05;;;;;;;;;16.67;16.00;;;;;20.03;72.36;100045.41;5052492;28;45441;-80
2023/06/06 02:48:30;;;;;;;;;18.33;17.67;;;;;19.94;71.98;100030.53;5041882;28;45599;-80
2023/06/06 02:50:56;;;;;;;;;17.33;16.33;;;;;19.96;72.28;100034.03;5053216;28;45381;-80
2023/06/06 02:53:23;;;;;;;;;18.00;16.00;;;;;19.99;72.15;100044.56;5047396;28;45514;-79
2023/06/06 02:55:49;;;;;;;;;17.25;16.75;;;;;19.83;73.06;100032.47;5039389;28;45594;-80
2023/06/06 02:58:28;;;;;;;;;18.00;17.25;;;;;19.92;72.84;100047.38;5054132;28;45645;-80
2023/06/06 03:00:58;;;;;;;;;20.00;17.33;;;;;19.86;73.62;100057.16;5045018;28;45469;-80
2023/06/06 03:03:24;;;;;;;;;23.67;17.67;;;;;19.78;73.54;100055.56;5046611;28;45407;-79
2023/06/06 03:05:51;;;;;;;;;18.00;16.33;;;;;19.71;73.96;100054.75;5038689;28;45358;-80
2023/06/06 03:08:21;;;;;;;;;18.75;17.50;;;;;19.63;74.13;100054.84;5057145;28;45894;-80
2023/06/06 03:10:47;;;;;;;;;22.00;19.75;;;;;19.56;74.75;100052.31;5040995;28;46065;-79
2023/06/06 03:13:14;;;;;;;;;20.00;19.00;;;;;19.53;74.45;100058.53;5041325;28;45502;-79
2023/06/06 03:15:40;;;;;;;;;18.50;16.50;;;;;19.44;74.67;100032.19;5041157;28;45548;-80
2023/06/06 03:18:23;;;;;;;;;21.33;17.67;;;;;19.41;74.44;100021.63;5040515;28;45651;-80
2023/06/06 03:20:53;;;;;;;;;18.33;17.00;;;;;19.55;74.46;100050.56;5040901;28;45395;-80
2023/06/06 03:23:19;;;;;;;;;22.50;19.50;;;;;19.62;74.12;100058.41;5059025;28;45417;-80
2023/06/06 03:25:49;;;;;;;;;18.75;17.50;;;;;19.43;74.85;100027.78;5037797;28;45740;-80
2023/06/06 03:28:17;;;;;;;;;16.33;15.33;;;;;19.61;74.08;100046.03;5038460;28;45503;-79
2023/06/06 03:30:43;;;;;;;;;18.33;16.33;;;;;19.53;73.86;100029.38;5040088;28;45431;-80
2023/06/06 03:33:09;;;;;;;;;20.67;18.67;;;;;19.61;74.03;100055.75;5040075;28;45519;-79
2023/06/06 03:35:35;;;;;;;;;17.67;16.33;;;;;19.53;74.32;100053.22;5054627;28;45788;-78
2023/06/06 03:38:01;;;;;;;;;21.33;18.00;;;;;19.52;74.46;100054.13;5044758;28;45504;-78
2023/06/06 03:40:27;;;;;;;;;19.00;17.00;;;;;19.35;74.39;100032.31;5057436;28;45346;-78
2023/06/06 03:42:53;;;;;;;;;20.25;17.00;;;;;19.46;74.55;100063.03;5043006;28;45579;-78
2023/06/06 03:45:20;;;;;;;;;19.00;16.67;;;;;19.31;74.42;100026.16;5053621;28;45481;-78
2023/06/06 03:47:46;;;;;;;;;23.00;22.00;;;;;19.25;74.50;100032.41;5037933;28;45489;-78
2023/06/06 03:50:11;;;;;;;;;17.33;16.67;;;;;19.33;74.57;100047.34;5048535;28;45311;-80
2023/06/06 03:52:38;;;;;;;;;19.33;17.67;;;;;19.47;74.17;100071.84;5025121;28;45466;-80
2023/06/06 03:55:04;;;;;;;;;20.00;19.67;;;;;19.43;74.88;100056.91;5056116;28;45423;-80
2023/06/06 03:57:30;;;;;;;;;19.67;19.33;;;;;19.24;74.73;100029.81;5038391;28;45541;-80
2023/06/06 03:59:55;;;;;;;;;18.00;16.33;;;;;19.41;74.63;100043.69;5038310;28;45567;-80
2023/06/06 04:02:21;;;;;;;;;17.00;15.33;;;;;19.34;74.08;100036.72;5037966;28;45358;-78
2023/06/06 04:04:50;;;;;;;;;23.25;20.25;;;;;19.38;73.78;100050.81;5038724;28;45480;-80
2023/06/06 04:07:16;;;;;;;;;16.67;16.00;;;;;19.38;74.11;100059.63;5053165;28;45377;-79
2023/06/06 04:09:42;;;;;;;;;16.67;15.33;;;;;19.41;73.85;100064.88;5040454;28;45767;-81
2023/06/06 04:12:08;;;;;;;;;17.67;16.33;;;;;19.33;73.41;100053.50;5056482;28;45594;-80
2023/06/06 04:14:34;;;;;;;;;19.67;18.33;;;;;19.49;73.31;100067.41;5038915;28;45618;-80
2023/06/06 04:17:01;;;;;;;;;19.75;18.25;;;;;19.33;73.95;100048.22;5039651;28;46169;-78
2023/06/06 04:19:27;;;;;;;;;17.67;16.67;;;;;19.38;74.40;100064.06;5045676;28;47040;-80
2023/06/06 04:21:54;;;;;;;;;22.00;19.75;;;;;19.17;75.05;100046.69;5055831;28;45429;-80
2023/06/06 04:24:20;;;;;;;;;22.00;20.50;;;;;19.14;75.19;100042.31;5039481;28;45485;-79
2023/06/06 04:26:46;;;;;;;;;22.00;18.33;;;;;19.24;74.51;100051.88;5039398;28;46047;-80
2023/06/06 04:29:13;;;;;;;;;20.00;19.75;;;;;19.12;74.69;100017.63;5042040;28;45419;-80
2023/06/06 04:31:40;;;;;;;;;17.75;16.25;;;;;19.16;75.12;100034.31;5037624;28;45504;-80
2023/06/06 04:34:09;;;;;;;;;18.33;16.33;;;;;19.33;74.77;100044.69;5045265;28;45556;-80
2023/06/06 04:36:38;;;;;;;;;20.75;19.00;;;;;19.42;74.50;100060.47;5043573;28;45529;-80
2023/06/06 04:39:07;;;;;;;;;20.33;18.00;;;;;19.39;74.56;100055.19;5052741;28;45437;-80
2023/06/06 04:41:34;;;;;;;;;19.75;18.75;;;;;19.35;74.38;100054.34;5037016;28;45759;-80
2023/06/06 04:44:03;;;;;;;;;19.75;17.75;;;;;19.37;74.78;100062.28;5037600;28;45538;-80
2023/06/06 04:46:29;;;;;;;;;17.67;17.00;;;;;19.26;74.80;100039.47;5037164;28;45470;-80
2023/06/06 04:48:56;;;;;;;;;19.75;18.75;;;;;19.41;74.59;100059.56;5044960;28;45259;-80
2023/06/06 04:51:29;;;;;;;;;21.33;19.33;;;;;19.44;73.87;100051.59;5051852;28;45643;-78
2023/06/06 04:54:07;;;;;;;;;16.00;14.50;;;;;19.28;74.57;100043.00;5037344;28;45423;-79
2023/06/06 04:56:34;;;;;;;;;22.75;22.00;;;;;19.31;75.47;100051.78;5052450;28;46087;-79
2023/06/06 04:59:06;;;;;;;;;18.75;18.00;;;;;19.37;75.13;100062.28;5037434;28;45359;-79
2023/06/06 05:01:36;;;;;;;;;18.75;17.50;;;;;19.41;74.59;100056.91;5048339;28;45404;-80
2023/06/06 05:04:03;;;;;;;;;15.25;14.25;;;;;19.37;74.48;100036.69;5043786;28;45694;-80
2023/06/06 05:06:31;;;;;;;;;18.00;17.75;;;;;19.55;74.34;100062.03;5036873;28;45505;-80
2023/06/06 05:09:03;;;;;;;;;16.00;15.33;;;;;19.60;74.42;100059.31;5036732;28;45334;-79
2023/06/06 05:11:29;;;;;;;;;20.33;19.67;;;;;19.59;74.37;100037.22;5047074;28;45384;-79
2023/06/06 05:13:55;;;;;;;;;18.00;17.50;;;;;19.71;73.94;100046.81;5042609;28;45445;-80
2023/06/06 05:16:21;;;;;;;;;19.50;18.50;;;;;19.88;73.65;100059.81;5052326;28;46608;-80
2023/06/06 05:18:46;;;;;;;;;17.67;17.67;;;;;19.93;73.09;100046.47;5036685;28;45345;-80
2023/06/06 05:21:13;;;;;;;;;16.25;16.25;;;;;20.08;72.92;100053.31;5054781;28;45268;-80
2023/06/06 05:23:39;;;;;;;;;18.00;17.00;;;;;19.97;72.67;100022.53;5042127;28;45590;-80
2023/06/06 05:26:05;;;;;;;;;15.00;13.67;;;;;20.03;72.52;100014.50;5034768;28;45514;-80
2023/06/06 05:28:30;;;;;;;;;17.25;17.00;;;;;20.31;72.50;100047.56;5049773;28;45373;-80
2023/06/06 05:30:56;;;;;;;;;18.25;17.50;;;;;20.41;72.27;100041.19;5037076;28;45530;-80
2023/06/06 05:33:27;;;;;;;;;16.25;15.25;;;;;20.66;71.69;100049.63;5037154;28;45462;-80
2023/06/06 05:35:53;;;;;;;;;18.33;16.67;;;;;20.87;71.49;100048.31;5051844;28;45402;-80
2023/06/06 05:38:19;;;;;;;;;22.00;19.75;;;;;21.02;70.78;100049.78;5036113;28;45262;-81
2023/06/06 05:40:45;;;;;;;;;18.00;16.00;;;;;21.11;70.32;100049.59;5045743;28;45436;-80
2023/06/06 05:43:11;;;;;;;;;16.33;14.33;;;;;21.03;70.03;100015.22;5042683;28;45468;-80
2023/06/06 05:45:37;;;;;;;;;20.00;17.33;;;;;21.17;69.96;100036.19;5048746;28;46433;-80
2023/06/06 05:48:03;;;;;;;;;19.00;19.00;;;;;21.29;70.26;100043.00;5036083;28;45415;-80
2023/06/06 05:50:29;;;;;;;;;16.67;15.33;;;;;21.23;70.07;100032.53;5036258;28;45565;-80
2023/06/06 05:52:55;;;;;;;;;17.00;15.00;;;;;21.36;69.79;100043.75;5036610;28;45476;-80
2023/06/06 05:55:31;;;;;;;;;17.00;16.67;;;;;21.41;69.62;100045.38;5035325;28;46936;-81
2023/06/06 05:57:57;;;;;;;;;19.33;18.00;;;;;21.34;69.25;100021.66;5037621;28;45402;-80
2023/06/06 06:00:28;;;;;;;;;18.33;18.33;;;;;21.42;69.48;100035.63;5055890;28;45478;-80
2023/06/06 06:02:56;;;;;;;;;18.33;18.33;;;;;21.38;69.85;100041.91;5039537;28;45524;-80
2023/06/06 06:05:22;;;;;;;;;19.00;18.00;;;;;21.31;70.40;100040.28;5037385;28;46599;-80
2023/06/06 06:07:48;;;;;;;;;18.33;17.33;;;;;21.30;69.91;100042.09;5048254;28;45428;-80
2023/06/06 06:10:16;;;;;;;;;23.67;23.33;;;;;21.06;70.84;100017.81;5047281;28;45373;-79
2023/06/06 06:12:42;;;;;;;;;20.00;18.67;;;;;21.24;70.35;100042.22;5040485;28;45285;-80
2023/06/06 06:15:09;;;;;;;;;16.33;15.67;;;;;21.26;69.97;100019.16;5053270;28;45488;-80
2023/06/06 06:17:35;;;;;;;;;16.67;15.00;;;;;21.44;69.38;100036.50;5038241;28;45409;-80
2023/06/06 06:20:06;;;;;;;;;15.00;14.00;;;;;21.47;69.40;100036.44;5036818;28;45552;-80
2023/06/06 06:22:32;;;;;;;;;29.50;27.50;;;;;21.28;69.47;100004.06;5045719;28;45530;-80
2023/06/06 06:24:57;;;;;;;;;27.75;23.00;;;;;21.38;70.58;100049.88;5044238;28;46026;-80
2023/06/06 06:27:23;;;;;;;;;23.33;18.67;;;;;21.31;70.80;100046.50;5044722;28;45597;-80
2023/06/06 06:29:50;;;;;;;;;21.25;19.00;;;;;21.23;69.98;100037.84;5042155;28;45418;-79
2023/06/06 06:32:17;;;;;;;;;21.33;20.00;;;;;21.04;71.21;100019.63;5038018;28;45652;-80
2023/06/06 06:34:43;;;;;;;;;21.67;18.67;;;;;20.83;73.03;100010.34;5031930;28;45525;-81
2023/06/06 06:37:08;;;;;;;;;19.00;18.00;;;;;21.04;70.87;100027.59;5046227;28;45474;-78
2023/06/06 06:39:34;;;;;;;;;21.00;20.00;;;;;21.17;71.54;100037.94;5049326;28;45632;-79
2023/06/06 06:42:00;;;;;;;;;19.33;18.00;;;;;21.11;70.67;100016.81;5049651;28;45242;-78
2023/06/06 06:44:25;;;;;;;;;17.67;16.67;;;;;21.13;71.13;100020.31;5051235;28;45539;-80
2023/06/06 06:46:51;;;;;;;;;18.67;16.67;;;;;21.13;71.04;99999.06;5048818;28;45311;-80
2023/06/06 06:49:16;;;;;;;;;20.00;18.67;;;;;21.44;71.57;100020.56;5049392;28;45969;-77
2023/06/06 06:51:42;;;;;;;;;18.00;17.00;;;;;21.46;70.78;99989.50;5049896;28;45562;-80
2023/06/06 06:54:15;;;;;;;;;18.33;17.00;;;;;21.77;70.60;100008.25;5050655;28;45547;-80
2023/06/06 06:56:41;;;;;;;;;17.00;15.00;;;;;21.87;70.27;100006.25;5048203;28;45568;-80
2023/06/06 06:59:07;;;;;;;;;21.67;18.67;;;;;22.07;69.50;100023.47;5048341;28;45572;-80
2023/06/06 07:01:34;;;;;;;;;17.67;17.00;;;;;22.02;69.56;100023.56;5053753;28;45416;-81
2023/06/06 07:04:00;;;;;;;;;20.67;18.33;;;;;22.09;69.64;100011.00;5048847;28;45417;-79
2023/06/06 07:06:27;;;;;;;;;17.67;15.67;;;;;22.38;69.11;100036.84;5031747;28;45482;-78
2023/06/06 07:08:52;;;;;;;;;21.00;18.67;;;;;22.56;68.60;100024.84;5049908;28;45583;-78
2023/06/06 07:11:18;;;;;;;;;20.67;19.67;;;;;22.85;67.63;100029.34;5049862;28;45335;-78
2023/06/06 07:13:44;;;;;;;;;17.67;17.00;;;;;23.13;66.75;100023.25;5029525;28;45293;-79
2023/06/06 07:16:10;;;;;;;;;17.67;17.33;;;;;23.36;66.36;100014.56;5046127;28;45918;-79
2023/06/06 07:18:35;;;;;;;;;14.67;13.67;;;;;23.91;65.61;100049.25;5039059;28;45550;-78
2023/06/06 07:21:01;;;;;;;;;21.00;17.33;;;;;24.41;63.34;100044.88;5048939;28;45446;-82
2023/06/06 07:23:26;;;;;;;;;18.00;17.33;;;;;24.74;62.15;100049.97;5055355;28;45466;-79
2023/06/06 07:25:52;;;;;;;;;18.00;17.33;;;;;25.32;59.94;100046.91;5056015;28;45428;-78
2023/06/06 07:28:18;;;;;;;;;19.67;19.00;;;;;25.66;57.51;100026.84;5056410;28;45489;-81
2023/06/06 07:30:44;;;;;;;;;20.33;19.33;;;;;27.16;54.12;100048.94;5057798;28;45389;-79
2023/06/06 07:33:10;;;;;;;;;18.33;16.00;;;;;29.01;50.35;100039.72;5052159;28;46062;-80
2023/06/06 07:35:36;;;;;;;;;18.00;17.00;;;;;30.08;48.19;100043.56;5038457;28;45777;-79
2023/06/06 07:38:02;;;;;;;;;15.67;15.67;;;;;29.92;48.22;100046.28;5057196;28;45596;-79
2023/06/06 07:40:28;;;;;;;;;17.67;15.67;;;;;30.98;46.43;100046.25;5056938;28;45243;-79
2023/06/06 07:42:54;;;;;;;;;18.00;17.33;;;;;31.91;42.96;100023.13;5037728;28;45415;-79
2023/06/06 07:45:21;;;;;;;;;15.00;15.00;;;;;33.03;42.01;100036.16;5054079;28;45557;-78
2023/06/06 07:47:47;;;;;;;;;15.67;15.00;;;;;34.26;38.73;100036.09;5054401;28;45767;-80
2023/06/06 07:50:13;;;;;;;;;14.67;12.67;;;;;35.39;39.27;100025.31;5053765;28;45484;-79
2023/06/06 07:52:43;;;;;;;;;13.33;13.33;;;;;36.66;33.34;100036.47;5054949;28;46112;-77
2023/06/06 07:55:11;;;;;;;;;14.33;13.33;;;;;37.66;32.66;100038.47;5054789;28;45514;-77
2023/06/06 07:57:40;;;;;;;;;14.00;13.33;;;;;39.04;32.84;100033.59;5047539;28;45376;-77
2023/06/06 08:00:12;;;;;;;;;12.67;12.67;;;;;40.27;31.79;100009.44;5047048;28;45524;-76
2023/06/06 08:02:39;;;;;;;;;12.67;12.33;;;;;41.54;26.97;100037.06;5054111;28;45512;-77
2023/06/06 08:05:05;;;;;;;;;12.00;11.67;;;;;42.13;28.77;100033.41;5050582;28;45520;-79
2023/06/06 08:07:32;;;;;;;;;12.00;12.00;;;;;42.96;26.99;100020.44;5056929;28;45443;-79
2023/06/06 08:09:58;;;;;;;;;10.00;10.00;;;;;43.91;24.62;100028.53;5053222;28;45652;-80
2023/06/06 08:12:23;;;;;;;;;14.00;14.00;;;;;43.64;24.85;100035.41;5036883;28;48031;-79
2023/06/06 08:14:49;;;;;;;;;12.67;12.00;;;;;43.85;23.78;100023.75;5051364;28;45553;-79
2023/06/06 08:17:15;;;;;;;;;13.67;13.67;;;;;42.96;23.72;100040.53;5044926;28;45505;-80
2023/06/06 08:19:40;;;;;;;;;12.00;10.33;;;;;42.22;26.97;100039.75;5044365;28;45366;-79
2023/06/06 08:22:06;;;;;;;;;10.33;10.33;;;;;41.42;26.21;100040.28;5051910;28;45701;-78
2023/06/06 08:24:31;;;;;;;;;11.33;10.67;;;;;39.69;28.47;100036.25;5022580;28;45353;-79
2023/06/06 08:26:57;;;;;;;;;10.00;9.33;;;;;39.41;30.18;100034.56;5048702;28;45370;-79
2023/06/06 08:29:23;;;;;;;;;12.67;11.00;;;;;39.40;30.30;100024.66;5030762;28;45455;-79
2023/06/06 08:31:50;;;;;;;;;11.67;11.67;;;;;40.12;28.03;100026.44;5055974;28;45397;-79
2023/06/06 08:34:16;;;;;;;;;12.33;12.00;;;;;40.80;27.97;100024.06;5035148;28;45491;-78
2023/06/06 08:36:41;;;;;;;;;12.00;12.00;;;;;40.14;28.03;100018.09;5056140;28;45524;-79
2023/06/06 08:39:07;;;;;;;;;11.33;11.00;;;;;40.30;27.89;100033.78;5056383;28;45558;-79
2023/06/06 08:41:33;;;;;;;;;11.33;11.00;;;;;39.29;29.18;100020.25;5053402;28;45512;-79
2023/06/06 08:44:03;;;;;;;;;13.33;13.00;;;;;38.27;30.77;100031.91;5036523;28;45331;-79
2023/06/06 08:46:35;;;;;;;;;11.33;11.00;;;;;37.02;32.35;100019.59;5044260;28;45525;-79
2023/06/06 08:49:06;;;;;;;;;12.00;12.00;;;;;36.39;32.96;100041.44;5052637;28;45503;-79
2023/06/06 08:51:33;;;;;;;;;12.33;11.33;;;;;36.52;33.05;100040.38;5018480;28;47758;-78
2023/06/06 08:54:00;;;;;;;;;12.33;11.67;;;;;36.39;32.82;100030.56;5036275;28;45758;-80
2023/06/06 08:56:26;;;;;;;;;13.33;12.00;;;;;36.37;33.43;100040.72;5044626;28;45468;-77
2023/06/06 08:58:52;;;;;;;;;12.33;12.00;;;;;35.90;33.53;100025.72;5042877;28;45663;-78
2023/06/06 09:01:20;;;;;;;;;11.33;11.33;;;;;35.31;34.63;100016.94;5035376;28;46885;-77
2023/06/06 09:03:48;;;;;;;;;12.67;12.67;;;;;34.72;35.25;100000.91;5032727;28;45455;-77
2023/06/06 09:06:17;;;;;;;;;12.33;12.00;;;;;34.89;35.86;100037.56;5043992;28;45783;-78
2023/06/06 09:08:44;;;;;;;;;12.00;12.00;;;;;35.38;34.39;100015.47;5040136;28;45521;-78
2023/06/06 09:11:11;;;;;;;;;10.67;10.67;;;;;36.75;32.24;100022.03;5051212;28;46226;-79
2023/06/06 09:13:41;;;;;;;;;9.00;9.00;;;;;38.17;31.01;100043.66;5041449;28;45344;-78
2023/06/06 09:16:08;;;;;;;;;10.33;10.33;;;;;39.23;28.63;100040.84;5045118;28;45480;-78
2023/06/06 09:18:35;;;;;;;;;11.67;11.67;;;;;39.91;27.14;100035.00;5045482;28;45414;-77
2023/06/06 09:21:01;;;;;;;;;43.25;36.75;;;;;40.03;27.23;100038.31;5049767;28;45803;-77
2023/06/06 09:23:30;;;;;;;;;13.00;12.33;;;;;40.68;26.97;100045.34;5049132;28;46116;-79
2023/06/06 09:25:58;;;;;;;;;10.00;10.00;;;;;40.93;27.07;100049.97;5049840;28;45540;-78
2023/06/06 09:28:41;;;;;;;;;9.33;8.00;;;;;41.40;26.27;100043.16;5039910;28;45407;-78
2023/06/06 09:31:25;;;;;;;;;12.67;12.00;;;;;41.34;26.23;100016.44;5039842;28;46218;-78
2023/06/06 09:33:55;;;;;;;;;9.67;9.33;;;;;40.97;27.42;100039.56;5048807;28;45460;-78
2023/06/06 09:36:24;;;;;;;;;11.67;10.67;;;;;40.51;26.92;100036.16;5046549;28;45593;-78
2023/06/06 09:38:54;;;;;;;;;10.00;10.00;;;;;40.62;25.92;100035.06;5046859;28;45659;-77
2023/06/06 09:41:21;;;;;;;;;10.67;10.67;;;;;40.79;26.50;100031.44;5032127;28;45498;-78
2023/06/06 09:43:48;;;;;;;;;10.00;10.00;;;;;40.91;26.40;100024.63;5033632;28;45591;-78
2023/06/06 09:46:17;;;;;;;;;8.33;8.33;;;;;41.13;26.16;100031.41;5051667;28;45797;-79
2023/06/06 09:48:53;;;;;;;;;9.67;9.33;;;;;40.84;25.98;100025.44;5041250;28;45557;-80
2023/06/06 09:51:19;;;;;;;;;6.00;6.00;;;;;40.83;26.05;100016.38;5044657;28;47005;-78
2023/06/06 09:53:51;;;;;;;;;8.67;8.67;;;;;40.81;26.27;100040.34;5031556;28;45438;-78
2023/06/06 09:56:22;;;;;;;;;9.00;9.00;;;;;41.34;25.41;100005.47;5036524;28;45494;-76
2023/06/06 09:58:54;;;;;;;;;9.67;8.00;;;;;41.75;24.76;100027.53;5049171;28;45412;-80
2023/06/06 10:01:26;;;;;;;;;9.67;9.67;;;;;41.64;24.58;100008.66;5054834;28;46183;-77
2023/06/06 10:03:54;;;;;;;;;8.00;8.00;;;;;41.44;25.54;100032.75;5035629;28;45585;-78
2023/06/06 10:06:20;;;;;;;;;8.33;8.33;;;;;41.30;25.86;100026.88;5044637;28;45509;-78
2023/06/06 10:08:48;;;;;;;;;9.00;9.00;;;;;41.72;25.66;100012.28;5043509;28;45394;-77
2023/06/06 10:11:14;;;;;;;;;8.00;8.00;;;;;42.19;25.57;100015.41;5041680;28;46229;-77
2023/06/06 10:13:40;;;;;;;;;10.33;9.33;;;;;42.17;24.42;100001.00;5035382;28;45575;-76
2023/06/06 10:16:07;;;;;;;;;6.67;6.67;;;;;42.13;25.68;100017.81;5038918;28;45560;-76
2023/06/06 10:18:33;;;;;;;;;10.67;9.67;;;;;42.00;24.68;100005.59;5048036;28;45774;-76
2023/06/06 10:21:02;;;;;;;;;9.67;9.33;;;;;41.43;26.54;100003.63;5057601;28;45475;-77
2023/06/06 10:23:27;;;;;;;;;8.00;8.00;;;;;41.32;26.28;100008.38;5056079;28;45708;-77
2023/06/06 10:25:55;;;;;;;;;11.00;9.00;;;;;41.57;25.81;100013.94;5038883;28;45962;-76
2023/06/06 10:28:30;;;;;;;;;9.00;8.67;;;;;41.41;25.85;100012.00;5050969;28;45604;-76
2023/06/06 10:31:03;;;;;;;;;9.67;9.67;;;;;41.28;25.48;100007.00;5045234;28;46139;-78
2023/06/06 10:33:45;;;;;;;;;7.00;7.00;;;;;40.84;25.83;100011.75;5038830;28;45818;-78
2023/06/06 10:36:17;;;;;;;;;8.33;8.00;;;;;40.63;26.26;100001.16;5023502;28;45544;-76
2023/06/06 10:39:18;;;;;;;;;8.67;8.67;;;;;40.17;26.36;99995.84;5039184;28;45515;-78
2023/06/06 10:41:58;;;;;;;;;10.00;9.67;;;;;39.32;27.44;99998.94;5020185;28;47758;-77
2023/06/06 10:44:54;;;;;;;;;8.67;8.67;;;;;38.89;27.75;99984.03;5037773;28;45456;-78
2023/06/06 10:47:32;;;;;;;;;9.33;9.33;;;;;38.11;29.05;99972.50;5046290;28;45391;-77
2023/06/06 10:50:13;;;;;;;;;9.00;8.33;;;;;37.89;29.51;99984.53;5041351;28;45475;-78
2023/06/06 10:52:59;;;;;;;;;8.00;8.00;;;;;37.69;29.28;99983.69;5027497;28;46716;-78
2023/06/06 10:55:28;;;;;;;;;6.67;6.67;;;;;37.51;30.01;99980.78;5030367;28;45433;-76
2023/06/06 10:58:03;;;;;;;;;8.33;8.33;;;;;37.61;30.03;99977.06;5047192;28;45612;-76
2023/06/06 11:00:31;;;;;;;;;9.33;8.33;;;;;37.63;29.68;99966.03;5026623;28;45426;-77
2023/06/06 11:02:58;;;;;;;;;7.67;7.33;;;;;37.48;29.92;99970.13;5035913;28;47789;-77
2023/06/06 11:05:24;;;;;;;;;9.00;8.67;;;;;37.51;30.02;99968.00;5035712;28;45458;-78
2023/06/06 11:07:50;;;;;;;;;7.67;7.00;;;;;37.48;30.46;99957.38;5023564;28;45455;-78
2023/06/06 11:10:22;;;;;;;;;8.00;8.00;;;;;36.69;30.97;99966.31;5048022;28;45589;-78
2023/06/06 11:12:51;;;;;;;;;3.00;2.67;;;;;36.17;31.51;99963.59;5050426;28;46713;-78
2023/06/06 11:15:29;;;;;;;;;8.67;8.67;;;;;35.56;32.75;99971.47;5040394;28;45460;-77